Estación Meteorológica Peña el Pijo (Robertgarden) [ 09/23/18 02:42:28 CEST ]

Fecha Hora Presion(HPa) Temp (°C) Humedad % Rocio (°C) Viento ( m/s) Direccion Lluvia 1Hora(mm) Lluvia 24H(mm) LLuvia Total(mm)
2018-Jul-31 01:01:53 1013.200 19.3 56 10.3         269.36
2018-Jul-31 02:01:44 1012.900 17.9 58 9.5         269.36
2018-Jul-31 03:01:30 1012.600 17.0 59 8.9         269.36
2018-Jul-31 04:01:28 1012.400 17.1 56 8.2         269.36
2018-Jul-31 05:01:29 1012.000 16.4 54 7.0         269.36
2018-Jul-31 06:01:29 1011.900 14.9 56 6.2         269.36
2018-Jul-31 07:01:55 1011.900 13.6 60 6.0         269.36
2018-Jul-31 08:01:46 1012.200 14.2 63 7.2         269.36
2018-Jul-31 09:01:48 1012.200 20.8 51 10.3         269.36
2018-Jul-31 10:01:56 1012.000 26.8 39 11.7         269.36
2018-Jul-31 11:01:47 1011.400 31.9 27 10.4         269.36
2018-Jul-31 12:01:50 1011.600 34.6 20 8.4         269.36
2018-Jul-31 13:01:46 1011.500 35.9 20 9.5         269.36
2018-Jul-31 14:01:41 1011.400 36.2 19 8.8         269.36
2018-Jul-31 15:01:47 1010.900 38.9 17 8.9         269.36
2018-Jul-31 16:01:38 1010.600 36.5 18 8.1 4.6 WNW     269.36
2018-Jul-31 17:01:20 1010.100 36.9 18 9.3 2.9 SSW     269.36
2018-Jul-31 18:01:46 1010.100 34.7 21 9.1 3.3 SSE     269.36
2018-Jul-31 19:01:16 1010.100 33.5 25 10.6         269.36
2018-Jul-31 20:01:39 1010.800 30.8 26 8.9         269.36
2018-Jul-31 21:01:49 1011.100 27.9 28 7.6 1.1 S     269.36
2018-Jul-31 22:01:48 1011.600 25.4 30 6.6         269.36
2018-Jul-31 23:01:47 1012.100 22.3 35 6.0         269.36

Temperatura Máxima:38°    Temperatura Mínima:13°
Presión Máxima:1013.200 Hpa    Presión Mínima:1010.100 Hpa


Volver